sensor_id;sensor_type;location;lat;lon;timestamp;P1;durP1;ratioP1;P2;durP2;ratioP2
19971;SDS011;10147;16.402;102.848;2023-11-21T00:01:13;45.40;;;40.55;;
19971;SDS011;10147;16.402;102.848;2023-11-21T00:03:43;45.72;;;41.03;;
19971;SDS011;10147;16.402;102.848;2023-11-21T00:06:13;47.60;;;40.67;;
19971;SDS011;10147;16.402;102.848;2023-11-21T00:08:43;47.97;;;43.00;;
19971;SDS011;10147;16.402;102.848;2023-11-21T00:11:14;36.17;;;29.10;;
19971;SDS011;10147;16.402;102.848;2023-11-21T00:13:44;37.97;;;29.48;;
19971;SDS011;10147;16.402;102.848;2023-11-21T00:16:17;42.63;;;31.15;;
19971;SDS011;10147;16.402;102.848;2023-11-21T00:18:47;40.78;;;29.83;;
19971;SDS011;10147;16.402;102.848;2023-11-21T00:21:17;40.95;;;30.70;;
19971;SDS011;10147;16.402;102.848;2023-11-21T00:23:47;41.72;;;30.60;;
19971;SDS011;10147;16.402;102.848;2023-11-21T00:26:17;44.15;;;31.27;;
19971;SDS011;10147;16.402;102.848;2023-11-21T00:28:57;40.25;;;31.05;;
19971;SDS011;10147;16.402;102.848;2023-11-21T00:31:27;41.55;;;30.00;;
19971;SDS011;10147;16.402;102.848;2023-11-21T00:33:58;39.38;;;28.00;;
19971;SDS011;10147;16.402;102.848;2023-11-21T00:36:28;38.97;;;28.05;;
19971;SDS011;10147;16.402;102.848;2023-11-21T00:38:58;36.97;;;27.33;;
19971;SDS011;10147;16.402;102.848;2023-11-21T00:41:28;39.88;;;26.98;;
19971;SDS011;10147;16.402;102.848;2023-11-21T00:43:58;32.28;;;26.77;;
19971;SDS011;10147;16.402;102.848;2023-11-21T00:46:29;35.92;;;28.08;;
19971;SDS011;10147;16.402;102.848;2023-11-21T00:49:01;43.90;;;28.40;;
19971;SDS011;10147;16.402;102.848;2023-11-21T00:51:33;39.65;;;29.20;;
19971;SDS011;10147;16.402;102.848;2023-11-21T00:54:03;41.20;;;36.75;;
19971;SDS011;10147;16.402;102.848;2023-11-21T00:56:35;34.78;;;26.60;;
19971;SDS011;10147;16.402;102.848;2023-11-21T00:59:05;34.15;;;26.35;;
19971;SDS011;10147;16.402;102.848;2023-11-21T01:01:35;47.60;;;36.03;;
19971;SDS011;10147;16.402;102.848;2023-11-21T01:04:06;38.70;;;31.92;;
19971;SDS011;10147;16.402;102.848;2023-11-21T01:06:36;47.65;;;37.80;;
19971;SDS011;10147;16.402;102.848;2023-11-21T01:09:08;33.45;;;26.23;;
19971;SDS011;10147;16.402;102.848;2023-11-21T01:11:38;36.08;;;26.20;;
19971;SDS011;10147;16.402;102.848;2023-11-21T01:14:08;30.65;;;24.95;;
19971;SDS011;10147;16.402;102.848;2023-11-21T01:16:39;30.98;;;24.00;;
19971;SDS011;10147;16.402;102.848;2023-11-21T01:19:09;31.75;;;24.10;;
19971;SDS011;10147;16.402;102.848;2023-11-21T01:21:39;30.55;;;25.20;;
19971;SDS011;10147;16.402;102.848;2023-11-21T01:24:09;29.48;;;26.23;;
19971;SDS011;10147;16.402;102.848;2023-11-21T01:26:39;31.60;;;24.98;;
19971;SDS011;10147;16.402;102.848;2023-11-21T01:29:13;34.95;;;26.67;;
19971;SDS011;10147;16.402;102.848;2023-11-21T01:31:44;28.15;;;23.63;;
19971;SDS011;10147;16.402;102.848;2023-11-21T01:34:14;32.72;;;22.95;;
19971;SDS011;10147;16.402;102.848;2023-11-21T01:36:45;27.60;;;21.65;;
19971;SDS011;10147;16.402;102.848;2023-11-21T01:39:16;31.70;;;23.08;;
19971;SDS011;10147;16.402;102.848;2023-11-21T01:41:52;27.42;;;21.95;;
19971;SDS011;10147;16.402;102.848;2023-11-21T01:44:22;30.58;;;23.42;;
19971;SDS011;10147;16.402;102.848;2023-11-21T01:46:53;32.63;;;22.60;;
19971;SDS011;10147;16.402;102.848;2023-11-21T01:49:23;24.85;;;21.88;;
19971;SDS011;10147;16.402;102.848;2023-11-21T01:51:53;28.75;;;22.17;;
19971;SDS011;10147;16.402;102.848;2023-11-21T01:54:23;31.95;;;22.77;;
19971;SDS011;10147;16.402;102.848;2023-11-21T01:56:54;26.73;;;20.65;;
19971;SDS011;10147;16.402;102.848;2023-11-21T01:59:24;29.85;;;21.52;;
19971;SDS011;10147;16.402;102.848;2023-11-21T02:01:56;28.30;;;20.48;;
19971;SDS011;10147;16.402;102.848;2023-11-21T02:04:26;27.95;;;20.15;;
19971;SDS011;10147;16.402;102.848;2023-11-21T02:06:57;26.98;;;19.58;;
19971;SDS011;10147;16.402;102.848;2023-11-21T02:09:27;35.33;;;20.20;;
19971;SDS011;10147;16.402;102.848;2023-11-21T02:12:07;23.00;;;19.77;;
19971;SDS011;10147;16.402;102.848;2023-11-21T02:14:39;31.02;;;19.48;;
19971;SDS011;10147;16.402;102.848;2023-11-21T02:17:09;27.90;;;18.85;;
19971;SDS011;10147;16.402;102.848;2023-11-21T02:19:39;22.90;;;18.45;;
19971;SDS011;10147;16.402;102.848;2023-11-21T02:22:09;23.85;;;18.20;;
19971;SDS011;10147;16.402;102.848;2023-11-21T02:24:41;23.58;;;18.30;;
19971;SDS011;10147;16.402;102.848;2023-11-21T02:27:11;22.38;;;17.50;;
19971;SDS011;10147;16.402;102.848;2023-11-21T02:29:51;26.67;;;18.27;;
19971;SDS011;10147;16.402;102.848;2023-11-21T02:32:22;24.17;;;18.25;;
19971;SDS011;10147;16.402;102.848;2023-11-21T02:35:14;24.27;;;16.58;;
19971;SDS011;10147;16.402;102.848;2023-11-21T02:37:45;24.33;;;17.00;;
19971;SDS011;10147;16.402;102.848;2023-11-21T02:40:15;22.33;;;18.35;;
19971;SDS011;10147;16.402;102.848;2023-11-21T02:42:49;23.67;;;17.85;;
19971;SDS011;10147;16.402;102.848;2023-11-21T02:45:23;22.48;;;17.45;;
19971;SDS011;10147;16.402;102.848;2023-11-21T02:47:53;22.15;;;16.63;;
19971;SDS011;10147;16.402;102.848;2023-11-21T02:50:26;22.90;;;17.08;;
19971;SDS011;10147;16.402;102.848;2023-11-21T02:52:56;25.98;;;17.63;;
19971;SDS011;10147;16.402;102.848;2023-11-21T02:55:29;23.65;;;16.20;;
19971;SDS011;10147;16.402;102.848;2023-11-21T02:57:59;25.42;;;17.33;;
19971;SDS011;10147;16.402;102.848;2023-11-21T03:00:29;19.35;;;17.30;;
19971;SDS011;10147;16.402;102.848;2023-11-21T03:02:59;28.48;;;18.35;;
19971;SDS011;10147;16.402;102.848;2023-11-21T03:05:30;23.48;;;16.42;;
19971;SDS011;10147;16.402;102.848;2023-11-21T03:08:27;22.42;;;17.58;;
19971;SDS011;10147;16.402;102.848;2023-11-21T03:10:58;24.15;;;17.27;;
19971;SDS011;10147;16.402;102.848;2023-11-21T03:13:28;25.38;;;18.50;;
19971;SDS011;10147;16.402;102.848;2023-11-21T03:15:58;19.90;;;16.38;;
19971;SDS011;10147;16.402;102.848;2023-11-21T03:18:28;24.00;;;19.05;;
19971;SDS011;10147;16.402;102.848;2023-11-21T03:20:58;25.52;;;16.60;;
19971;SDS011;10147;16.402;102.848;2023-11-21T03:23:29;22.08;;;18.08;;
19971;SDS011;10147;16.402;102.848;2023-11-21T03:25:59;21.13;;;16.60;;
19971;SDS011;10147;16.402;102.848;2023-11-21T03:28:30;28.42;;;25.52;;
19971;SDS011;10147;16.402;102.848;2023-11-21T03:31:03;30.25;;;27.15;;
19971;SDS011;10147;16.402;102.848;2023-11-21T03:33:33;37.75;;;33.70;;
19971;SDS011;10147;16.402;102.848;2023-11-21T03:36:04;21.98;;;16.52;;
19971;SDS011;10147;16.402;102.848;2023-11-21T03:38:36;26.70;;;16.58;;
19971;SDS011;10147;16.402;102.848;2023-11-21T03:41:07;33.25;;;29.38;;
19971;SDS011;10147;16.402;102.848;2023-11-21T03:43:40;20.10;;;16.27;;
19971;SDS011;10147;16.402;102.848;2023-11-21T03:46:13;27.23;;;17.20;;
19971;SDS011;10147;16.402;102.848;2023-11-21T03:48:44;21.85;;;17.08;;
19971;SDS011;10147;16.402;102.848;2023-11-21T03:51:16;26.70;;;18.23;;
19971;SDS011;10147;16.402;102.848;2023-11-21T03:53:46;22.77;;;17.38;;
19971;SDS011;10147;16.402;102.848;2023-11-21T03:56:16;20.80;;;15.88;;
19971;SDS011;10147;16.402;102.848;2023-11-21T03:58:46;28.55;;;17.05;;
19971;SDS011;10147;16.402;102.848;2023-11-21T04:01:21;26.23;;;23.52;;
19971;SDS011;10147;16.402;102.848;2023-11-21T04:03:53;22.65;;;15.52;;
19971;SDS011;10147;16.402;102.848;2023-11-21T04:06:23;29.92;;;22.00;;
19971;SDS011;10147;16.402;102.848;2023-11-21T04:08:54;23.55;;;21.10;;
19971;SDS011;10147;16.402;102.848;2023-11-21T04:11:24;19.42;;;15.50;;
19971;SDS011;10147;16.402;102.848;2023-11-21T04:13:54;25.38;;;15.55;;
19971;SDS011;10147;16.402;102.848;2023-11-21T04:16:24;22.60;;;15.73;;
19971;SDS011;10147;16.402;102.848;2023-11-21T04:18:57;18.30;;;15.00;;
19971;SDS011;10147;16.402;102.848;2023-11-21T04:21:30;24.17;;;14.48;;
19971;SDS011;10147;16.402;102.848;2023-11-21T04:24:02;24.75;;;15.77;;
19971;SDS011;10147;16.402;102.848;2023-11-21T04:26:31;18.90;;;14.60;;
19971;SDS011;10147;16.402;102.848;2023-11-21T04:29:02;20.98;;;14.68;;
19971;SDS011;10147;16.402;102.848;2023-11-21T04:31:33;24.95;;;17.17;;
19971;SDS011;10147;16.402;102.848;2023-11-21T04:34:04;24.10;;;16.70;;
19971;SDS011;10147;16.402;102.848;2023-11-21T04:36:37;18.38;;;15.10;;
19971;SDS011;10147;16.402;102.848;2023-11-21T04:39:08;24.95;;;15.63;;
19971;SDS011;10147;16.402;102.848;2023-11-21T04:41:40;19.73;;;15.48;;
19971;SDS011;10147;16.402;102.848;2023-11-21T04:44:09;18.83;;;14.23;;
19971;SDS011;10147;16.402;102.848;2023-11-21T04:46:39;19.75;;;14.70;;
19971;SDS011;10147;16.402;102.848;2023-11-21T04:49:09;20.92;;;15.68;;
19971;SDS011;10147;16.402;102.848;2023-11-21T04:51:39;20.90;;;14.35;;
19971;SDS011;10147;16.402;102.848;2023-11-21T04:54:09;25.73;;;15.05;;
19971;SDS011;10147;16.402;102.848;2023-11-21T04:56:39;23.10;;;15.65;;
19971;SDS011;10147;16.402;102.848;2023-11-21T04:59:10;30.63;;;27.40;;
19971;SDS011;10147;16.402;102.848;2023-11-21T05:01:40;34.33;;;29.67;;
19971;SDS011;10147;16.402;102.848;2023-11-21T05:04:10;44.33;;;36.63;;
19971;SDS011;10147;16.402;102.848;2023-11-21T05:06:40;18.88;;;13.98;;
19971;SDS011;10147;16.402;102.848;2023-11-21T05:09:10;22.27;;;14.48;;
19971;SDS011;10147;16.402;102.848;2023-11-21T05:11:41;20.98;;;14.68;;
19971;SDS011;10147;16.402;102.848;2023-11-21T05:14:10;23.75;;;15.32;;
19971;SDS011;10147;16.402;102.848;2023-11-21T05:16:42;25.60;;;20.88;;
19971;SDS011;10147;16.402;102.848;2023-11-21T05:19:12;18.42;;;14.48;;
19971;SDS011;10147;16.402;102.848;2023-11-21T05:21:42;25.02;;;15.98;;
19971;SDS011;10147;16.402;102.848;2023-11-21T05:24:12;19.15;;;14.30;;
19971;SDS011;10147;16.402;102.848;2023-11-21T05:26:42;23.77;;;13.93;;
19971;SDS011;10147;16.402;102.848;2023-11-21T05:29:12;20.70;;;13.90;;
19971;SDS011;10147;16.402;102.848;2023-11-21T05:31:42;17.23;;;14.70;;
19971;SDS011;10147;16.402;102.848;2023-11-21T05:34:13;24.98;;;15.68;;
19971;SDS011;10147;16.402;102.848;2023-11-21T05:36:45;21.10;;;15.02;;
19971;SDS011;10147;16.402;102.848;2023-11-21T05:39:15;21.67;;;13.88;;
19971;SDS011;10147;16.402;102.848;2023-11-21T05:41:49;20.77;;;13.95;;
19971;SDS011;10147;16.402;102.848;2023-11-21T05:44:19;19.77;;;14.30;;
19971;SDS011;10147;16.402;102.848;2023-11-21T05:46:49;22.77;;;14.18;;
19971;SDS011;10147;16.402;102.848;2023-11-21T05:49:22;20.05;;;13.63;;
19971;SDS011;10147;16.402;102.848;2023-11-21T05:51:54;21.10;;;13.63;;
19971;SDS011;10147;16.402;102.848;2023-11-21T05:54:28;16.02;;;12.40;;
19971;SDS011;10147;16.402;102.848;2023-11-21T05:56:58;17.33;;;13.75;;
19971;SDS011;10147;16.402;102.848;2023-11-21T05:59:29;15.70;;;13.07;;
19971;SDS011;10147;16.402;102.848;2023-11-21T06:01:59;15.35;;;12.35;;
19971;SDS011;10147;16.402;102.848;2023-11-21T06:04:31;18.80;;;13.25;;
19971;SDS011;10147;16.402;102.848;2023-11-21T06:07:01;21.80;;;14.48;;
19971;SDS011;10147;16.402;102.848;2023-11-21T06:09:31;20.33;;;14.43;;
19971;SDS011;10147;16.402;102.848;2023-11-21T06:12:01;19.48;;;13.75;;
19971;SDS011;10147;16.402;102.848;2023-11-21T06:14:32;17.67;;;13.05;;
19971;SDS011;10147;16.402;102.848;2023-11-21T06:17:03;21.00;;;14.25;;
19971;SDS011;10147;16.402;102.848;2023-11-21T06:19:33;19.65;;;14.00;;
19971;SDS011;10147;16.402;102.848;2023-11-21T06:22:04;18.55;;;14.57;;
19971;SDS011;10147;16.402;102.848;2023-11-21T06:24:34;31.02;;;28.23;;
19971;SDS011;10147;16.402;102.848;2023-11-21T06:27:05;35.08;;;29.45;;
19971;SDS011;10147;16.402;102.848;2023-11-21T06:29:38;16.02;;;13.85;;
19971;SDS011;10147;16.402;102.848;2023-11-21T06:32:09;19.23;;;14.02;;
19971;SDS011;10147;16.402;102.848;2023-11-21T06:34:40;17.50;;;14.48;;
19971;SDS011;10147;16.402;102.848;2023-11-21T06:37:13;18.00;;;13.65;;
19971;SDS011;10147;16.402;102.848;2023-11-21T06:39:43;16.10;;;13.68;;
19971;SDS011;10147;16.402;102.848;2023-11-21T06:42:13;21.60;;;13.65;;
19971;SDS011;10147;16.402;102.848;2023-11-21T06:44:44;18.17;;;13.35;;
19971;SDS011;10147;16.402;102.848;2023-11-21T06:47:14;19.38;;;13.75;;
19971;SDS011;10147;16.402;102.848;2023-11-21T06:49:44;20.33;;;13.93;;
19971;SDS011;10147;16.402;102.848;2023-11-21T06:52:19;20.92;;;13.55;;
19971;SDS011;10147;16.402;102.848;2023-11-21T06:54:50;16.00;;;13.68;;
19971;SDS011;10147;16.402;102.848;2023-11-21T06:57:19;19.58;;;13.77;;
19971;SDS011;10147;16.402;102.848;2023-11-21T06:59:52;17.55;;;13.60;;
19971;SDS011;10147;16.402;102.848;2023-11-21T07:02:23;17.95;;;13.48;;
19971;SDS011;10147;16.402;102.848;2023-11-21T07:04:53;14.70;;;13.20;;
19971;SDS011;10147;16.402;102.848;2023-11-21T07:07:23;18.05;;;13.65;;
19971;SDS011;10147;16.402;102.848;2023-11-21T07:09:53;19.23;;;13.60;;
19971;SDS011;10147;16.402;102.848;2023-11-21T07:12:31;18.60;;;13.13;;
19971;SDS011;10147;16.402;102.848;2023-11-21T07:15:03;25.95;;;13.80;;
19971;SDS011;10147;16.402;102.848;2023-11-21T07:17:38;15.55;;;13.52;;
19971;SDS011;10147;16.402;102.848;2023-11-21T07:20:09;18.02;;;13.77;;
19971;SDS011;10147;16.402;102.848;2023-11-21T07:22:39;17.08;;;13.18;;
19971;SDS011;10147;16.402;102.848;2023-11-21T07:25:09;17.92;;;13.93;;
19971;SDS011;10147;16.402;102.848;2023-11-21T07:27:39;17.48;;;13.30;;
19971;SDS011;10147;16.402;102.848;2023-11-21T07:30:16;21.15;;;12.98;;
19971;SDS011;10147;16.402;102.848;2023-11-21T07:32:47;17.67;;;12.75;;
19971;SDS011;10147;16.402;102.848;2023-11-21T07:35:17;16.33;;;12.20;;
19971;SDS011;10147;16.402;102.848;2023-11-21T07:37:47;15.40;;;12.60;;
19971;SDS011;10147;16.402;102.848;2023-11-21T07:40:17;18.10;;;12.32;;
19971;SDS011;10147;16.402;102.848;2023-11-21T07:42:47;15.85;;;13.32;;
19971;SDS011;10147;16.402;102.848;2023-11-21T07:45:19;18.40;;;14.18;;
19971;SDS011;10147;16.402;102.848;2023-11-21T07:47:50;18.58;;;12.82;;
19971;SDS011;10147;16.402;102.848;2023-11-21T07:50:21;18.15;;;12.68;;
19971;SDS011;10147;16.402;102.848;2023-11-21T07:52:52;18.85;;;13.40;;
19971;SDS011;10147;16.402;102.848;2023-11-21T07:55:23;16.73;;;13.15;;
19971;SDS011;10147;16.402;102.848;2023-11-21T07:57:53;17.58;;;12.98;;
19971;SDS011;10147;16.402;102.848;2023-11-21T08:00:23;18.08;;;14.57;;
19971;SDS011;10147;16.402;102.848;2023-11-21T08:02:53;21.25;;;14.00;;
19971;SDS011;10147;16.402;102.848;2023-11-21T08:05:24;21.33;;;14.43;;
19971;SDS011;10147;16.402;102.848;2023-11-21T08:08:03;17.25;;;12.57;;
19971;SDS011;10147;16.402;102.848;2023-11-21T08:10:33;15.23;;;13.52;;
19971;SDS011;10147;16.402;102.848;2023-11-21T08:13:07;16.10;;;13.45;;
19971;SDS011;10147;16.402;102.848;2023-11-21T08:15:37;21.52;;;16.40;;
19971;SDS011;10147;16.402;102.848;2023-11-21T08:18:07;17.17;;;12.93;;
19971;SDS011;10147;16.402;102.848;2023-11-21T08:20:37;19.92;;;13.45;;
19971;SDS011;10147;16.402;102.848;2023-11-21T08:23:08;18.05;;;12.98;;
19971;SDS011;10147;16.402;102.848;2023-11-21T08:25:42;19.35;;;13.57;;
19971;SDS011;10147;16.402;102.848;2023-11-21T08:28:13;17.10;;;13.07;;
19971;SDS011;10147;16.402;102.848;2023-11-21T08:30:45;14.82;;;13.23;;
19971;SDS011;10147;16.402;102.848;2023-11-21T08:33:15;22.52;;;14.18;;
19971;SDS011;10147;16.402;102.848;2023-11-21T08:35:45;14.98;;;12.50;;
19971;SDS011;10147;16.402;102.848;2023-11-21T08:38:16;20.42;;;14.02;;
19971;SDS011;10147;16.402;102.848;2023-11-21T08:40:46;20.00;;;16.23;;
19971;SDS011;10147;16.402;102.848;2023-11-21T08:43:16;16.40;;;13.07;;
19971;SDS011;10147;16.402;102.848;2023-11-21T08:45:48;20.85;;;13.50;;
19971;SDS011;10147;16.402;102.848;2023-11-21T08:48:18;20.48;;;13.95;;
19971;SDS011;10147;16.402;102.848;2023-11-21T08:50:48;17.08;;;13.52;;
19971;SDS011;10147;16.402;102.848;2023-11-21T08:53:19;19.92;;;14.65;;
19971;SDS011;10147;16.402;102.848;2023-11-21T08:55:50;23.17;;;13.38;;
19971;SDS011;10147;16.402;102.848;2023-11-21T08:58:22;20.88;;;14.05;;
19971;SDS011;10147;16.402;102.848;2023-11-21T09:00:52;22.98;;;13.93;;
19971;SDS011;10147;16.402;102.848;2023-11-21T09:03:22;15.50;;;12.95;;
19971;SDS011;10147;16.402;102.848;2023-11-21T09:05:52;17.67;;;12.60;;
19971;SDS011;10147;16.402;102.848;2023-11-21T09:08:22;22.55;;;13.60;;
19971;SDS011;10147;16.402;102.848;2023-11-21T09:10:52;22.17;;;13.98;;
19971;SDS011;10147;16.402;102.848;2023-11-21T09:13:22;20.45;;;15.98;;
19971;SDS011;10147;16.402;102.848;2023-11-21T09:15:54;19.50;;;15.93;;
19971;SDS011;10147;16.402;102.848;2023-11-21T09:18:24;28.27;;;14.45;;
19971;SDS011;10147;16.402;102.848;2023-11-21T09:20:54;17.55;;;14.00;;
19971;SDS011;10147;16.402;102.848;2023-11-21T09:23:24;19.00;;;13.48;;
19971;SDS011;10147;16.402;102.848;2023-11-21T09:25:54;19.00;;;14.05;;
19971;SDS011;10147;16.402;102.848;2023-11-21T09:28:25;19.80;;;13.88;;
19971;SDS011;10147;16.402;102.848;2023-11-21T09:30:56;20.15;;;13.68;;
19971;SDS011;10147;16.402;102.848;2023-11-21T09:33:26;20.45;;;14.55;;
19971;SDS011;10147;16.402;102.848;2023-11-21T09:35:57;18.38;;;13.98;;
19971;SDS011;10147;16.402;102.848;2023-11-21T09:38:26;16.60;;;13.32;;
19971;SDS011;10147;16.402;102.848;2023-11-21T09:40:57;17.05;;;13.70;;
19971;SDS011;10147;16.402;102.848;2023-11-21T09:43:28;17.88;;;14.48;;
19971;SDS011;10147;16.402;102.848;2023-11-21T09:46:02;17.60;;;13.23;;
19971;SDS011;10147;16.402;102.848;2023-11-21T09:48:39;18.30;;;12.98;;
19971;SDS011;10147;16.402;102.848;2023-11-21T09:51:10;20.80;;;15.23;;
19971;SDS011;10147;16.402;102.848;2023-11-21T09:53:40;22.48;;;14.77;;
19971;SDS011;10147;16.402;102.848;2023-11-21T09:56:13;44.75;;;35.47;;
19971;SDS011;10147;16.402;102.848;2023-11-21T09:58:49;25.02;;;16.92;;
19971;SDS011;10147;16.402;102.848;2023-11-21T10:01:25;50.15;;;33.03;;
19971;SDS011;10147;16.402;102.848;2023-11-21T10:03:57;23.02;;;15.32;;
19971;SDS011;10147;16.402;102.848;2023-11-21T10:06:28;19.58;;;16.85;;
19971;SDS011;10147;16.402;102.848;2023-11-21T10:08:59;20.33;;;14.95;;
19971;SDS011;10147;16.402;102.848;2023-11-21T10:11:30;18.27;;;14.48;;
19971;SDS011;10147;16.402;102.848;2023-11-21T10:14:00;20.77;;;14.93;;
19971;SDS011;10147;16.402;102.848;2023-11-21T10:16:33;21.92;;;17.42;;
19971;SDS011;10147;16.402;102.848;2023-11-21T10:19:04;18.30;;;15.88;;
19971;SDS011;10147;16.402;102.848;2023-11-21T10:21:38;19.90;;;17.45;;
19971;SDS011;10147;16.402;102.848;2023-11-21T10:24:08;20.05;;;16.02;;
19971;SDS011;10147;16.402;102.848;2023-11-21T10:26:39;20.00;;;17.08;;
19971;SDS011;10147;16.402;102.848;2023-11-21T10:29:20;21.58;;;15.18;;
19971;SDS011;10147;16.402;102.848;2023-11-21T10:31:50;29.50;;;24.60;;
19971;SDS011;10147;16.402;102.848;2023-11-21T10:34:24;30.20;;;15.85;;
19971;SDS011;10147;16.402;102.848;2023-11-21T10:36:56;33.90;;;16.27;;
19971;SDS011;10147;16.402;102.848;2023-11-21T10:39:26;40.47;;;16.45;;
19971;SDS011;10147;16.402;102.848;2023-11-21T10:41:59;49.70;;;23.05;;
19971;SDS011;10147;16.402;102.848;2023-11-21T10:44:29;63.38;;;20.65;;
19971;SDS011;10147;16.402;102.848;2023-11-21T10:47:01;41.47;;;25.92;;
19971;SDS011;10147;16.402;102.848;2023-11-21T10:49:31;47.28;;;29.63;;
19971;SDS011;10147;16.402;102.848;2023-11-21T10:52:01;42.72;;;32.97;;
19971;SDS011;10147;16.402;102.848;2023-11-21T10:54:32;42.03;;;24.20;;
19971;SDS011;10147;16.402;102.848;2023-11-21T10:57:04;49.78;;;24.95;;
19971;SDS011;10147;16.402;102.848;2023-11-21T10:59:36;50.22;;;30.35;;
19971;SDS011;10147;16.402;102.848;2023-11-21T11:02:12;52.25;;;28.70;;
19971;SDS011;10147;16.402;102.848;2023-11-21T11:04:56;42.08;;;27.00;;
19971;SDS011;10147;16.402;102.848;2023-11-21T11:07:27;42.85;;;24.85;;
19971;SDS011;10147;16.402;102.848;2023-11-21T11:09:59;38.47;;;25.13;;
19971;SDS011;10147;16.402;102.848;2023-11-21T11:12:30;36.75;;;23.33;;
19971;SDS011;10147;16.402;102.848;2023-11-21T11:15:01;46.88;;;27.88;;
19971;SDS011;10147;16.402;102.848;2023-11-21T11:17:36;60.90;;;34.35;;
19971;SDS011;10147;16.402;102.848;2023-11-21T11:20:11;44.13;;;27.23;;
19971;SDS011;10147;16.402;102.848;2023-11-21T11:38:17;47.70;;;28.20;;
19971;SDS011;10147;16.402;102.848;2023-11-21T11:40:48;45.72;;;29.83;;
19971;SDS011;10147;16.402;102.848;2023-11-21T11:43:26;52.05;;;30.73;;
19971;SDS011;10147;16.402;102.848;2023-11-21T11:45:58;57.45;;;35.58;;
19971;SDS011;10147;16.402;102.848;2023-11-21T11:48:29;52.78;;;37.78;;
19971;SDS011;10147;16.402;102.848;2023-11-21T11:53:49;46.70;;;29.55;;
19971;SDS011;10147;16.402;102.848;2023-11-21T11:56:22;49.28;;;30.08;;
19971;SDS011;10147;16.402;102.848;2023-11-21T11:58:55;53.63;;;33.55;;
19971;SDS011;10147;16.402;102.848;2023-11-21T12:01:27;67.15;;;37.10;;
19971;SDS011;10147;16.402;102.848;2023-11-21T12:07:00;82.82;;;48.33;;
19971;SDS011;10147;16.402;102.848;2023-11-21T12:09:32;89.65;;;47.13;;
19971;SDS011;10147;16.402;102.848;2023-11-21T12:12:02;94.15;;;55.85;;
19971;SDS011;10147;16.402;102.848;2023-11-21T12:14:34;142.48;;;93.38;;
19971;SDS011;10147;16.402;102.848;2023-11-21T12:17:06;95.55;;;55.60;;
19971;SDS011;10147;16.402;102.848;2023-11-21T12:19:37;87.05;;;49.22;;
19971;SDS011;10147;16.402;102.848;2023-11-21T12:22:07;75.85;;;45.58;;
19971;SDS011;10147;16.402;102.848;2023-11-21T12:24:37;82.70;;;48.08;;
19971;SDS011;10147;16.402;102.848;2023-11-21T12:27:07;77.13;;;45.90;;
19971;SDS011;10147;16.402;102.848;2023-11-21T12:29:37;77.00;;;45.20;;
19971;SDS011;10147;16.402;102.848;2023-11-21T12:32:10;65.97;;;44.05;;
19971;SDS011;10147;16.402;102.848;2023-11-21T12:34:40;62.67;;;40.88;;
19971;SDS011;10147;16.402;102.848;2023-11-21T12:37:11;68.68;;;39.60;;
19971;SDS011;10147;16.402;102.848;2023-11-21T12:39:41;73.43;;;38.85;;
19971;SDS011;10147;16.402;102.848;2023-11-21T12:42:11;71.75;;;40.65;;
19971;SDS011;10147;16.402;102.848;2023-11-21T12:44:41;66.20;;;40.40;;
19971;SDS011;10147;16.402;102.848;2023-11-21T12:47:16;70.10;;;39.70;;
19971;SDS011;10147;16.402;102.848;2023-11-21T12:49:50;72.53;;;49.05;;
19971;SDS011;10147;16.402;102.848;2023-11-21T12:52:20;77.43;;;49.25;;
19971;SDS011;10147;16.402;102.848;2023-11-21T12:54:50;66.15;;;45.78;;
19971;SDS011;10147;16.402;102.848;2023-11-21T12:57:20;60.92;;;44.88;;
19971;SDS011;10147;16.402;102.848;2023-11-21T12:59:57;88.28;;;55.88;;
19971;SDS011;10147;16.402;102.848;2023-11-21T13:02:27;366.05;;;320.02;;
19971;SDS011;10147;16.402;102.848;2023-11-21T13:04:59;75.50;;;53.08;;
19971;SDS011;10147;16.402;102.848;2023-11-21T13:07:44;69.78;;;48.60;;
19971;SDS011;10147;16.402;102.848;2023-11-21T13:10:16;73.60;;;44.45;;
19971;SDS011;10147;16.402;102.848;2023-11-21T13:12:46;78.03;;;44.13;;
19971;SDS011;10147;16.402;102.848;2023-11-21T13:15:17;74.40;;;46.88;;
19971;SDS011;10147;16.402;102.848;2023-11-21T13:17:46;88.15;;;49.05;;
19971;SDS011;10147;16.402;102.848;2023-11-21T13:20:17;78.13;;;47.30;;
19971;SDS011;10147;16.402;102.848;2023-11-21T13:22:49;73.40;;;47.72;;
19971;SDS011;10147;16.402;102.848;2023-11-21T13:25:26;84.63;;;49.22;;
19971;SDS011;10147;16.402;102.848;2023-11-21T13:27:57;86.47;;;50.13;;
19971;SDS011;10147;16.402;102.848;2023-11-21T13:30:30;86.32;;;53.20;;
19971;SDS011;10147;16.402;102.848;2023-11-21T13:33:03;71.65;;;47.50;;
19971;SDS011;10147;16.402;102.848;2023-11-21T13:35:38;77.63;;;51.00;;
19971;SDS011;10147;16.402;102.848;2023-11-21T13:38:16;85.55;;;55.80;;
19971;SDS011;10147;16.402;102.848;2023-11-21T13:40:52;96.85;;;62.30;;
19971;SDS011;10147;16.402;102.848;2023-11-21T13:43:23;97.38;;;61.25;;
19971;SDS011;10147;16.402;102.848;2023-11-21T13:45:55;96.43;;;59.60;;
19971;SDS011;10147;16.402;102.848;2023-11-21T13:48:39;106.57;;;67.97;;
19971;SDS011;10147;16.402;102.848;2023-11-21T13:51:19;103.20;;;65.82;;
19971;SDS011;10147;16.402;102.848;2023-11-21T13:53:58;107.68;;;66.05;;
19971;SDS011;10147;16.402;102.848;2023-11-21T13:56:29;95.03;;;59.40;;
19971;SDS011;10147;16.402;102.848;2023-11-21T13:59:00;98.72;;;59.00;;
19971;SDS011;10147;16.402;102.848;2023-11-21T14:01:39;91.40;;;57.42;;
19971;SDS011;10147;16.402;102.848;2023-11-21T14:04:29;90.28;;;66.22;;
19971;SDS011;10147;16.402;102.848;2023-11-21T14:07:19;79.65;;;54.22;;
19971;SDS011;10147;16.402;102.848;2023-11-21T14:10:09;70.82;;;48.28;;
19971;SDS011;10147;16.402;102.848;2023-11-21T14:12:43;66.40;;;49.17;;
19971;SDS011;10147;16.402;102.848;2023-11-21T14:15:14;70.95;;;46.72;;
19971;SDS011;10147;16.402;102.848;2023-11-21T14:17:47;73.47;;;50.30;;
19971;SDS011;10147;16.402;102.848;2023-11-21T14:20:18;97.95;;;58.47;;
19971;SDS011;10147;16.402;102.848;2023-11-21T14:22:53;87.22;;;58.85;;
19971;SDS011;10147;16.402;102.848;2023-11-21T14:25:32;92.88;;;60.50;;
19971;SDS011;10147;16.402;102.848;2023-11-21T14:28:03;224.18;;;183.65;;
19971;SDS011;10147;16.402;102.848;2023-11-21T14:30:35;281.75;;;234.80;;
19971;SDS011;10147;16.402;102.848;2023-11-21T14:33:05;87.75;;;60.25;;
19971;SDS011;10147;16.402;102.848;2023-11-21T14:35:37;79.47;;;57.38;;
19971;SDS011;10147;16.402;102.848;2023-11-21T14:38:08;83.40;;;55.15;;
19971;SDS011;10147;16.402;102.848;2023-11-21T14:40:39;80.85;;;55.38;;
19971;SDS011;10147;16.402;102.848;2023-11-21T14:43:09;76.72;;;53.45;;